sensor_id;sensor_type;location;lat;lon;timestamp;P1;durP1;ratioP1;P2;durP2;ratioP2
53879;SDS011;39791;53.184;5.486;2023-12-07T00:01:55;41.05;;;37.40;;
53879;SDS011;39791;53.184;5.486;2023-12-07T00:04:20;41.17;;;37.50;;
53879;SDS011;39791;53.184;5.486;2023-12-07T00:06:46;37.80;;;34.17;;
53879;SDS011;39791;53.184;5.486;2023-12-07T00:09:11;42.47;;;38.78;;
53879;SDS011;39791;53.184;5.486;2023-12-07T00:11:37;45.05;;;41.25;;
53879;SDS011;39791;53.184;5.486;2023-12-07T00:14:02;41.80;;;38.10;;
53879;SDS011;39791;53.184;5.486;2023-12-07T00:16:28;44.60;;;40.70;;
53879;SDS011;39791;53.184;5.486;2023-12-07T00:18:54;43.90;;;40.03;;
53879;SDS011;39791;53.184;5.486;2023-12-07T00:21:20;46.55;;;42.65;;
53879;SDS011;39791;53.184;5.486;2023-12-07T00:23:45;46.95;;;42.67;;
53879;SDS011;39791;53.184;5.486;2023-12-07T00:26:11;46.30;;;42.30;;
53879;SDS011;39791;53.184;5.486;2023-12-07T00:28:36;47.25;;;43.05;;
53879;SDS011;39791;53.184;5.486;2023-12-07T00:31:02;40.58;;;36.97;;
53879;SDS011;39791;53.184;5.486;2023-12-07T00:33:28;42.67;;;38.78;;
53879;SDS011;39791;53.184;5.486;2023-12-07T00:35:53;40.53;;;36.80;;
53879;SDS011;39791;53.184;5.486;2023-12-07T00:38:19;42.47;;;38.45;;
53879;SDS011;39791;53.184;5.486;2023-12-07T00:40:46;43.42;;;39.35;;
53879;SDS011;39791;53.184;5.486;2023-12-07T00:43:11;40.88;;;36.92;;
53879;SDS011;39791;53.184;5.486;2023-12-07T00:45:37;42.53;;;38.83;;
53879;SDS011;39791;53.184;5.486;2023-12-07T00:48:02;45.33;;;41.03;;
53879;SDS011;39791;53.184;5.486;2023-12-07T00:50:29;47.22;;;43.10;;
53879;SDS011;39791;53.184;5.486;2023-12-07T00:52:54;42.90;;;38.70;;
53879;SDS011;39791;53.184;5.486;2023-12-07T00:55:20;48.17;;;43.70;;
53879;SDS011;39791;53.184;5.486;2023-12-07T00:57:45;48.13;;;44.13;;
53879;SDS011;39791;53.184;5.486;2023-12-07T01:00:11;46.40;;;42.08;;
53879;SDS011;39791;53.184;5.486;2023-12-07T01:02:37;47.85;;;43.22;;
53879;SDS011;39791;53.184;5.486;2023-12-07T01:05:03;45.78;;;41.45;;
53879;SDS011;39791;53.184;5.486;2023-12-07T01:07:28;44.67;;;40.50;;
53879;SDS011;39791;53.184;5.486;2023-12-07T01:09:54;40.83;;;37.05;;
53879;SDS011;39791;53.184;5.486;2023-12-07T01:12:19;43.38;;;38.97;;
53879;SDS011;39791;53.184;5.486;2023-12-07T01:14:45;43.50;;;39.20;;
53879;SDS011;39791;53.184;5.486;2023-12-07T01:17:10;42.83;;;39.00;;
53879;SDS011;39791;53.184;5.486;2023-12-07T01:19:36;44.58;;;40.45;;
53879;SDS011;39791;53.184;5.486;2023-12-07T01:22:01;49.00;;;44.97;;
53879;SDS011;39791;53.184;5.486;2023-12-07T01:24:28;45.72;;;41.45;;
53879;SDS011;39791;53.184;5.486;2023-12-07T01:26:54;39.92;;;36.30;;
53879;SDS011;39791;53.184;5.486;2023-12-07T01:29:20;49.72;;;45.47;;
53879;SDS011;39791;53.184;5.486;2023-12-07T01:31:45;50.03;;;45.83;;
53879;SDS011;39791;53.184;5.486;2023-12-07T01:34:11;49.05;;;44.85;;
53879;SDS011;39791;53.184;5.486;2023-12-07T01:36:36;49.65;;;45.45;;
53879;SDS011;39791;53.184;5.486;2023-12-07T01:39:02;44.38;;;40.47;;
53879;SDS011;39791;53.184;5.486;2023-12-07T01:41:28;42.55;;;38.67;;
53879;SDS011;39791;53.184;5.486;2023-12-07T01:43:53;42.90;;;39.05;;
53879;SDS011;39791;53.184;5.486;2023-12-07T01:46:19;42.08;;;38.28;;
53879;SDS011;39791;53.184;5.486;2023-12-07T01:48:45;41.10;;;37.08;;
53879;SDS011;39791;53.184;5.486;2023-12-07T01:51:14;96.55;;;38.58;;
53879;SDS011;39791;53.184;5.486;2023-12-07T01:53:40;46.13;;;42.10;;
53879;SDS011;39791;53.184;5.486;2023-12-07T01:56:05;46.97;;;42.78;;
53879;SDS011;39791;53.184;5.486;2023-12-07T01:58:33;41.97;;;36.75;;
53879;SDS011;39791;53.184;5.486;2023-12-07T02:00:59;49.75;;;45.60;;
53879;SDS011;39791;53.184;5.486;2023-12-07T02:03:26;46.47;;;42.28;;
53879;SDS011;39791;53.184;5.486;2023-12-07T02:05:53;43.90;;;40.00;;
53879;SDS011;39791;53.184;5.486;2023-12-07T02:08:19;44.42;;;40.70;;
53879;SDS011;39791;53.184;5.486;2023-12-07T02:10:45;39.83;;;36.42;;
53879;SDS011;39791;53.184;5.486;2023-12-07T02:13:11;41.45;;;37.50;;
53879;SDS011;39791;53.184;5.486;2023-12-07T02:15:37;45.67;;;41.97;;
53879;SDS011;39791;53.184;5.486;2023-12-07T02:18:06;41.95;;;37.63;;
53879;SDS011;39791;53.184;5.486;2023-12-07T02:23:40;44.30;;;40.20;;
53879;SDS011;39791;53.184;5.486;2023-12-07T02:26:07;48.92;;;45.03;;
53879;SDS011;39791;53.184;5.486;2023-12-07T02:28:35;46.85;;;42.83;;
53879;SDS011;39791;53.184;5.486;2023-12-07T02:31:01;49.65;;;45.13;;
53879;SDS011;39791;53.184;5.486;2023-12-07T02:33:26;40.53;;;36.40;;
53879;SDS011;39791;53.184;5.486;2023-12-07T02:35:52;41.80;;;37.90;;
53879;SDS011;39791;53.184;5.486;2023-12-07T02:38:17;40.55;;;36.83;;
53879;SDS011;39791;53.184;5.486;2023-12-07T02:40:47;43.00;;;39.42;;
53879;SDS011;39791;53.184;5.486;2023-12-07T02:43:14;41.90;;;38.40;;
53879;SDS011;39791;53.184;5.486;2023-12-07T02:45:40;45.97;;;42.17;;
53879;SDS011;39791;53.184;5.486;2023-12-07T02:48:06;50.85;;;47.00;;
53879;SDS011;39791;53.184;5.486;2023-12-07T02:50:32;53.70;;;49.40;;
53879;SDS011;39791;53.184;5.486;2023-12-07T02:52:57;50.03;;;45.50;;
53879;SDS011;39791;53.184;5.486;2023-12-07T02:55:23;53.72;;;48.67;;
53879;SDS011;39791;53.184;5.486;2023-12-07T02:57:49;54.15;;;49.38;;
53879;SDS011;39791;53.184;5.486;2023-12-07T03:00:14;61.83;;;56.47;;
53879;SDS011;39791;53.184;5.486;2023-12-07T03:02:40;48.30;;;44.10;;
53879;SDS011;39791;53.184;5.486;2023-12-07T03:05:06;50.33;;;46.13;;
53879;SDS011;39791;53.184;5.486;2023-12-07T03:07:32;46.65;;;42.60;;
53879;SDS011;39791;53.184;5.486;2023-12-07T03:09:58;46.65;;;42.65;;
53879;SDS011;39791;53.184;5.486;2023-12-07T03:12:24;45.95;;;41.95;;
53879;SDS011;39791;53.184;5.486;2023-12-07T03:14:49;45.40;;;40.92;;
53879;SDS011;39791;53.184;5.486;2023-12-07T03:17:15;50.25;;;46.10;;
53879;SDS011;39791;53.184;5.486;2023-12-07T03:19:41;46.00;;;42.15;;
53879;SDS011;39791;53.184;5.486;2023-12-07T03:22:07;42.25;;;38.65;;
53879;SDS011;39791;53.184;5.486;2023-12-07T03:24:36;46.08;;;42.28;;
53879;SDS011;39791;53.184;5.486;2023-12-07T03:27:03;47.42;;;43.55;;
53879;SDS011;39791;53.184;5.486;2023-12-07T03:29:29;48.80;;;44.08;;
53879;SDS011;39791;53.184;5.486;2023-12-07T03:31:55;45.38;;;41.65;;
53879;SDS011;39791;53.184;5.486;2023-12-07T03:34:21;46.00;;;42.10;;
53879;SDS011;39791;53.184;5.486;2023-12-07T03:36:46;50.47;;;45.40;;
53879;SDS011;39791;53.184;5.486;2023-12-07T03:39:13;55.10;;;50.30;;
53879;SDS011;39791;53.184;5.486;2023-12-07T03:41:39;46.45;;;42.15;;
53879;SDS011;39791;53.184;5.486;2023-12-07T03:44:05;56.05;;;51.30;;
53879;SDS011;39791;53.184;5.486;2023-12-07T03:46:30;58.90;;;53.90;;
53879;SDS011;39791;53.184;5.486;2023-12-07T03:48:56;66.70;;;61.28;;
53879;SDS011;39791;53.184;5.486;2023-12-07T03:51:21;65.72;;;60.45;;
53879;SDS011;39791;53.184;5.486;2023-12-07T03:53:47;49.83;;;45.35;;
53879;SDS011;39791;53.184;5.486;2023-12-07T03:56:22;46.88;;;42.33;;
53879;SDS011;39791;53.184;5.486;2023-12-07T03:58:49;46.70;;;42.25;;
53879;SDS011;39791;53.184;5.486;2023-12-07T04:01:15;53.67;;;49.17;;
53879;SDS011;39791;53.184;5.486;2023-12-07T04:03:40;56.33;;;51.35;;
53879;SDS011;39791;53.184;5.486;2023-12-07T04:06:06;52.22;;;47.63;;
53879;SDS011;39791;53.184;5.486;2023-12-07T04:08:31;51.72;;;47.15;;
53879;SDS011;39791;53.184;5.486;2023-12-07T04:10:58;174.32;;;54.03;;
53879;SDS011;39791;53.184;5.486;2023-12-07T04:13:23;51.85;;;47.28;;
53879;SDS011;39791;53.184;5.486;2023-12-07T04:15:49;46.08;;;41.78;;
53879;SDS011;39791;53.184;5.486;2023-12-07T04:18:14;50.70;;;46.50;;
53879;SDS011;39791;53.184;5.486;2023-12-07T04:20:40;48.33;;;43.92;;
53879;SDS011;39791;53.184;5.486;2023-12-07T04:23:06;51.03;;;46.75;;
53879;SDS011;39791;53.184;5.486;2023-12-07T04:25:31;48.15;;;44.00;;
53879;SDS011;39791;53.184;5.486;2023-12-07T04:27:57;44.15;;;40.45;;
53879;SDS011;39791;53.184;5.486;2023-12-07T04:30:23;46.58;;;41.60;;
53879;SDS011;39791;53.184;5.486;2023-12-07T04:32:49;53.08;;;48.97;;
53879;SDS011;39791;53.184;5.486;2023-12-07T04:35:14;48.55;;;43.67;;
53879;SDS011;39791;53.184;5.486;2023-12-07T04:37:40;43.65;;;40.05;;
53879;SDS011;39791;53.184;5.486;2023-12-07T04:40:06;55.13;;;50.15;;
53879;SDS011;39791;53.184;5.486;2023-12-07T04:42:32;285.63;;;52.65;;
53879;SDS011;39791;53.184;5.486;2023-12-07T04:44:57;45.65;;;41.35;;
53879;SDS011;39791;53.184;5.486;2023-12-07T04:47:23;47.50;;;43.20;;
53879;SDS011;39791;53.184;5.486;2023-12-07T04:49:48;46.75;;;42.22;;
53879;SDS011;39791;53.184;5.486;2023-12-07T04:52:14;51.28;;;46.58;;
53879;SDS011;39791;53.184;5.486;2023-12-07T04:54:40;51.03;;;46.20;;
53879;SDS011;39791;53.184;5.486;2023-12-07T04:57:05;46.45;;;42.28;;
53879;SDS011;39791;53.184;5.486;2023-12-07T04:59:31;50.97;;;46.28;;
53879;SDS011;39791;53.184;5.486;2023-12-07T05:01:57;51.38;;;46.97;;
53879;SDS011;39791;53.184;5.486;2023-12-07T05:04:22;44.90;;;40.90;;
53879;SDS011;39791;53.184;5.486;2023-12-07T05:06:48;45.97;;;41.15;;
53879;SDS011;39791;53.184;5.486;2023-12-07T05:09:13;147.75;;;44.47;;
53879;SDS011;39791;53.184;5.486;2023-12-07T05:11:40;47.67;;;42.63;;
53879;SDS011;39791;53.184;5.486;2023-12-07T05:14:06;50.35;;;44.50;;
53879;SDS011;39791;53.184;5.486;2023-12-07T05:16:32;48.97;;;44.58;;
53879;SDS011;39791;53.184;5.486;2023-12-07T05:18:58;55.38;;;50.42;;
53879;SDS011;39791;53.184;5.486;2023-12-07T05:21:23;57.53;;;52.55;;
53879;SDS011;39791;53.184;5.486;2023-12-07T05:23:49;47.67;;;43.08;;
53879;SDS011;39791;53.184;5.486;2023-12-07T05:26:15;54.90;;;49.90;;
53879;SDS011;39791;53.184;5.486;2023-12-07T05:28:40;46.80;;;42.55;;
53879;SDS011;39791;53.184;5.486;2023-12-07T05:31:06;50.65;;;45.92;;
53879;SDS011;39791;53.184;5.486;2023-12-07T05:33:32;695.88;;;67.43;;
53879;SDS011;39791;53.184;5.486;2023-12-07T05:35:57;49.42;;;44.83;;
53879;SDS011;39791;53.184;5.486;2023-12-07T05:38:23;49.45;;;45.05;;
53879;SDS011;39791;53.184;5.486;2023-12-07T05:40:49;45.55;;;41.45;;
53879;SDS011;39791;53.184;5.486;2023-12-07T05:43:14;51.80;;;47.30;;
53879;SDS011;39791;53.184;5.486;2023-12-07T05:45:40;44.45;;;40.50;;
53879;SDS011;39791;53.184;5.486;2023-12-07T05:48:06;52.38;;;47.92;;
53879;SDS011;39791;53.184;5.486;2023-12-07T05:50:31;52.92;;;48.42;;
53879;SDS011;39791;53.184;5.486;2023-12-07T05:52:57;51.75;;;47.58;;
53879;SDS011;39791;53.184;5.486;2023-12-07T05:55:22;53.00;;;48.58;;
53879;SDS011;39791;53.184;5.486;2023-12-07T05:57:49;49.95;;;45.97;;
53879;SDS011;39791;53.184;5.486;2023-12-07T06:00:14;53.55;;;48.75;;
53879;SDS011;39791;53.184;5.486;2023-12-07T06:02:41;845.53;;;81.60;;
53879;SDS011;39791;53.184;5.486;2023-12-07T06:05:07;54.50;;;49.33;;
53879;SDS011;39791;53.184;5.486;2023-12-07T06:07:33;52.28;;;47.13;;
53879;SDS011;39791;53.184;5.486;2023-12-07T06:09:59;54.42;;;49.25;;
53879;SDS011;39791;53.184;5.486;2023-12-07T06:12:24;51.10;;;45.97;;
53879;SDS011;39791;53.184;5.486;2023-12-07T06:14:50;55.10;;;49.42;;
53879;SDS011;39791;53.184;5.486;2023-12-07T06:17:15;55.05;;;49.85;;
53879;SDS011;39791;53.184;5.486;2023-12-07T06:19:41;58.75;;;52.47;;
53879;SDS011;39791;53.184;5.486;2023-12-07T06:22:07;50.08;;;44.97;;
53879;SDS011;39791;53.184;5.486;2023-12-07T06:24:33;56.05;;;50.35;;
53879;SDS011;39791;53.184;5.486;2023-12-07T06:26:59;52.83;;;46.72;;
53879;SDS011;39791;53.184;5.486;2023-12-07T06:29:26;52.33;;;47.13;;
53879;SDS011;39791;53.184;5.486;2023-12-07T06:31:52;57.72;;;52.05;;
53879;SDS011;39791;53.184;5.486;2023-12-07T06:34:17;60.92;;;54.88;;
53879;SDS011;39791;53.184;5.486;2023-12-07T06:36:44;53.80;;;48.30;;
53879;SDS011;39791;53.184;5.486;2023-12-07T06:39:10;60.15;;;54.50;;
53879;SDS011;39791;53.184;5.486;2023-12-07T06:41:35;59.60;;;53.92;;
53879;SDS011;39791;53.184;5.486;2023-12-07T06:44:01;61.50;;;55.45;;
53879;SDS011;39791;53.184;5.486;2023-12-07T06:46:27;65.18;;;56.67;;
53879;SDS011;39791;53.184;5.486;2023-12-07T06:48:52;60.28;;;54.35;;
53879;SDS011;39791;53.184;5.486;2023-12-07T06:51:18;59.92;;;53.88;;
53879;SDS011;39791;53.184;5.486;2023-12-07T06:53:43;54.05;;;47.17;;
53879;SDS011;39791;53.184;5.486;2023-12-07T06:56:09;62.80;;;56.40;;
53879;SDS011;39791;53.184;5.486;2023-12-07T06:58:34;65.82;;;59.30;;
53879;SDS011;39791;53.184;5.486;2023-12-07T07:01:00;62.42;;;55.97;;
53879;SDS011;39791;53.184;5.486;2023-12-07T07:03:26;61.70;;;55.20;;
53879;SDS011;39791;53.184;5.486;2023-12-07T07:05:54;58.90;;;52.47;;
53879;SDS011;39791;53.184;5.486;2023-12-07T07:08:20;61.55;;;55.40;;
53879;SDS011;39791;53.184;5.486;2023-12-07T07:10:46;60.72;;;54.67;;
53879;SDS011;39791;53.184;5.486;2023-12-07T07:13:15;61.65;;;55.42;;
53879;SDS011;39791;53.184;5.486;2023-12-07T07:15:42;58.97;;;52.05;;
53879;SDS011;39791;53.184;5.486;2023-12-07T07:18:08;59.75;;;53.60;;
53879;SDS011;39791;53.184;5.486;2023-12-07T07:20:34;59.35;;;53.50;;
53879;SDS011;39791;53.184;5.486;2023-12-07T07:23:00;64.60;;;58.08;;
53879;SDS011;39791;53.184;5.486;2023-12-07T07:25:25;61.75;;;55.58;;
53879;SDS011;39791;53.184;5.486;2023-12-07T07:27:51;64.70;;;58.42;;
53879;SDS011;39791;53.184;5.486;2023-12-07T07:30:17;61.20;;;54.60;;
53879;SDS011;39791;53.184;5.486;2023-12-07T07:32:43;67.13;;;60.53;;
53879;SDS011;39791;53.184;5.486;2023-12-07T07:35:09;64.15;;;57.70;;
53879;SDS011;39791;53.184;5.486;2023-12-07T07:37:36;57.72;;;49.03;;
53879;SDS011;39791;53.184;5.486;2023-12-07T07:40:03;59.53;;;53.38;;
53879;SDS011;39791;53.184;5.486;2023-12-07T07:42:32;59.67;;;53.53;;
53879;SDS011;39791;53.184;5.486;2023-12-07T07:44:58;59.53;;;53.38;;
53879;SDS011;39791;53.184;5.486;2023-12-07T07:47:23;59.15;;;53.00;;
53879;SDS011;39791;53.184;5.486;2023-12-07T07:49:49;62.67;;;55.80;;
53879;SDS011;39791;53.184;5.486;2023-12-07T07:52:14;60.58;;;54.47;;
53879;SDS011;39791;53.184;5.486;2023-12-07T07:54:40;63.83;;;57.15;;
53879;SDS011;39791;53.184;5.486;2023-12-07T07:57:06;60.15;;;53.10;;
53879;SDS011;39791;53.184;5.486;2023-12-07T07:59:31;65.32;;;58.00;;
53879;SDS011;39791;53.184;5.486;2023-12-07T08:01:57;58.45;;;52.55;;
53879;SDS011;39791;53.184;5.486;2023-12-07T08:04:22;65.63;;;58.55;;
53879;SDS011;39791;53.184;5.486;2023-12-07T08:06:48;63.55;;;57.05;;
53879;SDS011;39791;53.184;5.486;2023-12-07T08:09:13;60.25;;;53.85;;
53879;SDS011;39791;53.184;5.486;2023-12-07T08:11:39;67.97;;;56.17;;
53879;SDS011;39791;53.184;5.486;2023-12-07T08:14:05;58.85;;;51.38;;
53879;SDS011;39791;53.184;5.486;2023-12-07T08:16:30;107.85;;;61.63;;
53879;SDS011;39791;53.184;5.486;2023-12-07T08:18:56;67.28;;;57.28;;
53879;SDS011;39791;53.184;5.486;2023-12-07T08:21:23;67.15;;;60.22;;
53879;SDS011;39791;53.184;5.486;2023-12-07T08:23:50;69.50;;;62.47;;
53879;SDS011;39791;53.184;5.486;2023-12-07T08:26:16;71.25;;;60.92;;
53879;SDS011;39791;53.184;5.486;2023-12-07T08:28:42;70.32;;;58.20;;
53879;SDS011;39791;53.184;5.486;2023-12-07T08:31:08;62.67;;;55.55;;
53879;SDS011;39791;53.184;5.486;2023-12-07T08:33:34;71.88;;;59.80;;
53879;SDS011;39791;53.184;5.486;2023-12-07T08:36:00;66.60;;;57.30;;
53879;SDS011;39791;53.184;5.486;2023-12-07T08:38:26;67.15;;;58.13;;
53879;SDS011;39791;53.184;5.486;2023-12-07T08:40:52;65.35;;;58.13;;
53879;SDS011;39791;53.184;5.486;2023-12-07T08:43:21;66.47;;;58.85;;
53879;SDS011;39791;53.184;5.486;2023-12-07T08:45:50;65.72;;;58.72;;
53879;SDS011;39791;53.184;5.486;2023-12-07T08:48:16;65.82;;;58.20;;
53879;SDS011;39791;53.184;5.486;2023-12-07T08:50:43;69.55;;;59.65;;
53879;SDS011;39791;53.184;5.486;2023-12-07T08:53:08;65.93;;;58.35;;
53879;SDS011;39791;53.184;5.486;2023-12-07T08:55:34;68.45;;;60.55;;
53879;SDS011;39791;53.184;5.486;2023-12-07T08:58:00;67.72;;;58.45;;
53879;SDS011;39791;53.184;5.486;2023-12-07T09:00:25;70.32;;;58.78;;
53879;SDS011;39791;53.184;5.486;2023-12-07T09:02:51;66.07;;;57.95;;
53879;SDS011;39791;53.184;5.486;2023-12-07T09:05:17;65.78;;;56.90;;
53879;SDS011;39791;53.184;5.486;2023-12-07T09:07:43;67.32;;;60.08;;
53879;SDS011;39791;53.184;5.486;2023-12-07T09:10:09;74.13;;;61.90;;
53879;SDS011;39791;53.184;5.486;2023-12-07T09:12:35;69.10;;;58.90;;
53879;SDS011;39791;53.184;5.486;2023-12-07T09:15:04;74.60;;;62.58;;
53879;SDS011;39791;53.184;5.486;2023-12-07T09:17:32;59.90;;;53.13;;
53879;SDS011;39791;53.184;5.486;2023-12-07T09:19:57;70.82;;;59.78;;
53879;SDS011;39791;53.184;5.486;2023-12-07T09:22:23;68.18;;;59.30;;
53879;SDS011;39791;53.184;5.486;2023-12-07T09:24:50;63.65;;;56.83;;
53879;SDS011;39791;53.184;5.486;2023-12-07T09:27:15;74.15;;;60.75;;
53879;SDS011;39791;53.184;5.486;2023-12-07T09:29:41;66.30;;;55.72;;
53879;SDS011;39791;53.184;5.486;2023-12-07T09:32:07;66.53;;;59.35;;
53879;SDS011;39791;53.184;5.486;2023-12-07T09:34:33;64.43;;;57.53;;
53879;SDS011;39791;53.184;5.486;2023-12-07T09:37:06;64.10;;;57.17;;
53879;SDS011;39791;53.184;5.486;2023-12-07T09:39:32;63.95;;;57.03;;
53879;SDS011;39791;53.184;5.486;2023-12-07T09:41:57;63.10;;;56.42;;
53879;SDS011;39791;53.184;5.486;2023-12-07T09:44:23;62.38;;;55.58;;
53879;SDS011;39791;53.184;5.486;2023-12-07T09:46:49;59.67;;;53.28;;
53879;SDS011;39791;53.184;5.486;2023-12-07T09:49:15;60.40;;;53.75;;
53879;SDS011;39791;53.184;5.486;2023-12-07T09:51:41;64.53;;;57.50;;
53879;SDS011;39791;53.184;5.486;2023-12-07T09:54:08;63.42;;;56.47;;
53879;SDS011;39791;53.184;5.486;2023-12-07T09:56:34;64.18;;;57.28;;
53879;SDS011;39791;53.184;5.486;2023-12-07T09:59:00;67.38;;;60.10;;
53879;SDS011;39791;53.184;5.486;2023-12-07T10:01:29;63.67;;;55.75;;
53879;SDS011;39791;53.184;5.486;2023-12-07T10:04:19;64.85;;;57.80;;
53879;SDS011;39791;53.184;5.486;2023-12-07T10:06:45;68.53;;;57.75;;
53879;SDS011;39791;53.184;5.486;2023-12-07T10:09:13;63.38;;;54.50;;
53879;SDS011;39791;53.184;5.486;2023-12-07T10:11:38;63.80;;;56.75;;
53879;SDS011;39791;53.184;5.486;2023-12-07T10:14:05;62.30;;;55.47;;
53879;SDS011;39791;53.184;5.486;2023-12-07T10:16:32;60.90;;;54.28;;
53879;SDS011;39791;53.184;5.486;2023-12-07T10:19:14;64.55;;;57.65;;
53879;SDS011;39791;53.184;5.486;2023-12-07T10:21:42;68.00;;;60.75;;
53879;SDS011;39791;53.184;5.486;2023-12-07T10:24:09;63.25;;;56.47;;
53879;SDS011;39791;53.184;5.486;2023-12-07T10:26:35;66.55;;;55.95;;
53879;SDS011;39791;53.184;5.486;2023-12-07T10:29:04;62.40;;;55.53;;
53879;SDS011;39791;53.184;5.486;2023-12-07T10:31:30;62.85;;;56.03;;
53879;SDS011;39791;53.184;5.486;2023-12-07T10:33:57;63.00;;;55.25;;
53879;SDS011;39791;53.184;5.486;2023-12-07T10:36:24;62.00;;;55.25;;
53879;SDS011;39791;53.184;5.486;2023-12-07T10:38:50;63.33;;;55.30;;
53879;SDS011;39791;53.184;5.486;2023-12-07T10:41:16;62.47;;;55.45;;
53879;SDS011;39791;53.184;5.486;2023-12-07T10:43:44;66.78;;;59.78;;
53879;SDS011;39791;53.184;5.486;2023-12-07T10:46:14;58.53;;;52.03;;
53879;SDS011;39791;53.184;5.486;2023-12-07T10:48:46;62.60;;;55.75;;
53879;SDS011;39791;53.184;5.486;2023-12-07T10:51:14;66.45;;;59.42;;
53879;SDS011;39791;53.184;5.486;2023-12-07T10:54:07;63.85;;;57.22;;
53879;SDS011;39791;53.184;5.486;2023-12-07T10:56:44;64.85;;;57.30;;
53879;SDS011;39791;53.184;5.486;2023-12-07T10:59:11;57.38;;;51.03;;
53879;SDS011;39791;53.184;5.486;2023-12-07T11:01:38;59.90;;;53.72;;
53879;SDS011;39791;53.184;5.486;2023-12-07T11:04:05;66.68;;;59.47;;
53879;SDS011;39791;53.184;5.486;2023-12-07T11:06:34;61.20;;;54.78;;
53879;SDS011;39791;53.184;5.486;2023-12-07T11:09:02;68.63;;;60.78;;
53879;SDS011;39791;53.184;5.486;2023-12-07T11:11:36;65.68;;;56.67;;
53879;SDS011;39791;53.184;5.486;2023-12-07T11:14:09;67.82;;;60.90;;
53879;SDS011;39791;53.184;5.486;2023-12-07T11:16:37;64.88;;;57.95;;
53879;SDS011;39791;53.184;5.486;2023-12-07T11:19:06;61.95;;;55.28;;
53879;SDS011;39791;53.184;5.486;2023-12-07T11:21:54;63.22;;;55.90;;
53879;SDS011;39791;53.184;5.486;2023-12-07T11:24:21;70.65;;;63.03;;
53879;SDS011;39791;53.184;5.486;2023-12-07T11:26:51;73.03;;;61.72;;
53879;SDS011;39791;53.184;5.486;2023-12-07T11:29:19;71.55;;;61.75;;
53879;SDS011;39791;53.184;5.486;2023-12-07T11:31:49;65.07;;;57.97;;
53879;SDS011;39791;53.184;5.486;2023-12-07T11:35:01;62.05;;;54.63;;
53879;SDS011;39791;53.184;5.486;2023-12-07T11:39:40;66.13;;;58.72;;
53879;SDS011;39791;53.184;5.486;2023-12-07T11:42:10;62.08;;;55.38;;
53879;SDS011;39791;53.184;5.486;2023-12-07T11:44:43;60.22;;;53.72;;
53879;SDS011;39791;53.184;5.486;2023-12-07T11:47:15;61.65;;;55.05;;
53879;SDS011;39791;53.184;5.486;2023-12-07T11:49:41;63.50;;;51.78;;
53879;SDS011;39791;53.184;5.486;2023-12-07T11:52:20;60.90;;;54.83;;
53879;SDS011;39791;53.184;5.486;2023-12-07T11:54:46;64.38;;;57.42;;
53879;SDS011;39791;53.184;5.486;2023-12-07T11:57:13;62.15;;;55.72;;
53879;SDS011;39791;53.184;5.486;2023-12-07T11:59:39;61.42;;;54.75;;
53879;SDS011;39791;53.184;5.486;2023-12-07T12:02:06;62.55;;;55.58;;
53879;SDS011;39791;53.184;5.486;2023-12-07T12:04:31;64.40;;;57.10;;
53879;SDS011;39791;53.184;5.486;2023-12-07T12:06:57;63.78;;;55.45;;
53879;SDS011;39791;53.184;5.486;2023-12-07T12:09:25;58.20;;;52.22;;
53879;SDS011;39791;53.184;5.486;2023-12-07T12:11:51;59.30;;;52.85;;
53879;SDS011;39791;53.184;5.486;2023-12-07T12:14:16;64.68;;;57.05;;
53879;SDS011;39791;53.184;5.486;2023-12-07T12:16:43;61.75;;;55.20;;
53879;SDS011;39791;53.184;5.486;2023-12-07T12:19:09;63.92;;;54.95;;
53879;SDS011;39791;53.184;5.486;2023-12-07T12:21:36;62.63;;;56.05;;
53879;SDS011;39791;53.184;5.486;2023-12-07T12:24:05;66.95;;;58.67;;
53879;SDS011;39791;53.184;5.486;2023-12-07T12:26:33;61.38;;;54.92;;
53879;SDS011;39791;53.184;5.486;2023-12-07T12:29:00;69.03;;;57.85;;
53879;SDS011;39791;53.184;5.486;2023-12-07T12:31:26;63.13;;;53.58;;
53879;SDS011;39791;53.184;5.486;2023-12-07T12:33:53;59.03;;;52.63;;
53879;SDS011;39791;53.184;5.486;2023-12-07T12:36:19;60.67;;;51.92;;
53879;SDS011;39791;53.184;5.486;2023-12-07T12:38:48;66.63;;;50.15;;
53879;SDS011;39791;53.184;5.486;2023-12-07T12:41:18;112.03;;;51.80;;
53879;SDS011;39791;53.184;5.486;2023-12-07T12:43:44;93.97;;;52.22;;
53879;SDS011;39791;53.184;5.486;2023-12-07T12:46:10;231.85;;;61.25;;
53879;SDS011;39791;53.184;5.486;2023-12-07T12:48:36;189.45;;;57.33;;
53879;SDS011;39791;53.184;5.486;2023-12-07T12:51:14;112.63;;;47.50;;
53879;SDS011;39791;53.184;5.486;2023-12-07T12:53:46;97.43;;;50.08;;
53879;SDS011;39791;53.184;5.486;2023-12-07T12:56:12;148.50;;;49.25;;
53879;SDS011;39791;53.184;5.486;2023-12-07T12:58:38;174.65;;;51.33;;
53879;SDS011;39791;53.184;5.486;2023-12-07T13:01:04;128.70;;;46.33;;
53879;SDS011;39791;53.184;5.486;2023-12-07T13:03:31;145.00;;;46.20;;
53879;SDS011;39791;53.184;5.486;2023-12-07T13:05:57;91.18;;;43.88;;
53879;SDS011;39791;53.184;5.486;2023-12-07T13:08:23;102.53;;;44.83;;
53879;SDS011;39791;53.184;5.486;2023-12-07T13:10:48;101.03;;;45.00;;
53879;SDS011;39791;53.184;5.486;2023-12-07T13:13:15;78.97;;;40.97;;
53879;SDS011;39791;53.184;5.486;2023-12-07T13:15:41;131.10;;;45.13;;
53879;SDS011;39791;53.184;5.486;2023-12-07T13:18:06;100.45;;;47.97;;
53879;SDS011;39791;53.184;5.486;2023-12-07T13:20:33;91.25;;;48.40;;
53879;SDS011;39791;53.184;5.486;2023-12-07T13:23:00;92.57;;;49.92;;
53879;SDS011;39791;53.184;5.486;2023-12-07T13:25:26;170.20;;;51.22;;
53879;SDS011;39791;53.184;5.486;2023-12-07T13:27:51;118.15;;;47.65;;
53879;SDS011;39791;53.184;5.486;2023-12-07T13:30:17;208.90;;;52.25;;
53879;SDS011;39791;53.184;5.486;2023-12-07T13:32:43;82.97;;;45.42;;
53879;SDS011;39791;53.184;5.486;2023-12-07T13:35:09;101.28;;;44.22;;
53879;SDS011;39791;53.184;5.486;2023-12-07T13:37:34;96.05;;;46.38;;
53879;SDS011;39791;53.184;5.486;2023-12-07T13:40:01;92.78;;;44.53;;
53879;SDS011;39791;53.184;5.486;2023-12-07T13:42:29;112.25;;;49.05;;
53879;SDS011;39791;53.184;5.486;2023-12-07T13:44:55;79.15;;;46.85;;
53879;SDS011;39791;53.184;5.486;2023-12-07T13:47:23;67.38;;;45.60;;
53879;SDS011;39791;53.184;5.486;2023-12-07T13:49:53;50.90;;;41.40;;
53879;SDS011;39791;53.184;5.486;2023-12-07T13:52:20;85.25;;;45.00;;
53879;SDS011;39791;53.184;5.486;2023-12-07T13:54:46;65.53;;;44.75;;
53879;SDS011;39791;53.184;5.486;2023-12-07T13:57:11;87.72;;;45.08;;
53879;SDS011;39791;53.184;5.486;2023-12-07T13:59:37;111.72;;;47.03;;
53879;SDS011;39791;53.184;5.486;2023-12-07T14:02:03;51.85;;;41.15;;
53879;SDS011;39791;53.184;5.486;2023-12-07T14:04:29;105.53;;;47.67;;
53879;SDS011;39791;53.184;5.486;2023-12-07T14:07:06;103.70;;;49.47;;
53879;SDS011;39791;53.184;5.486;2023-12-07T14:09:33;58.15;;;44.30;;
53879;SDS011;39791;53.184;5.486;2023-12-07T14:11:59;89.25;;;47.88;;
53879;SDS011;39791;53.184;5.486;2023-12-07T14:14:24;83.30;;;46.58;;
53879;SDS011;39791;53.184;5.486;2023-12-07T14:16:50;87.07;;;47.78;;
53879;SDS011;39791;53.184;5.486;2023-12-07T14:19:15;90.93;;;51.88;;
53879;SDS011;39791;53.184;5.486;2023-12-07T14:21:41;80.53;;;46.88;;
53879;SDS011;39791;53.184;5.486;2023-12-07T14:24:08;51.70;;;43.65;;